Wilmington, OH

4:39 PM EST on February 01, 2015 (GMT -0500)
APRSWXNET Adams Tnsp OH US | Change Station
CLOSE
Current Station
Personal Weather Station
Location: Wilmington, OH
Elevation: 1017 ft
Nearby Weather Stations

Elev 1017 ft 39.44 °N, 83.90 °W | Updated 49 minutes ago

Overcast
Overcast
40 °F
Feels Like 35 °F
N
7
Wind Variable Wind from South
Gusts 16.0 mph

Today
High -- | Low -- °F
--% Chance of Precip.
Yesterday
High -- | Low -- °F
Precip. -- in
7:42 AM 5:55 PM
Waxing Gibbous, 96% visible
Pressure 29.74 in
Visibility 6.0 miles
Clouds Overcast 2800 ft
Windchill 35 °F
Dew Point 36 °F
Humidity 87%
Rainfall 0.12 in
Snow Depth Not available.
UV 0 out of 12
Pollen .10 out of 12
Air Quality Not available.
Flu Activity Not available.
METAR KILN 012054Z AUTO 17015G21KT 6SM BR OVC028 04/02 A2967 RMK AO2 RAE33 SLP069 P0001 60010 T00390017 56053

More Conditions Fewer Conditions

Pressure 29.74 in
Visibility 6.0 miles
Clouds Overcast 2800 ft
Windchill 35 °F
Dew Point 36 °F
Humidity 87%
Rainfall 0.12 in
Snow Depth Not available.
UV 0 out of 12
Pollen .10 out of 12
Air Quality Not available.
Flu Activity Not available.
METAR KILN 012054Z AUTO 17015G21KT 6SM BR OVC028 04/02 A2967 RMK AO2 RAE33 SLP069 P0001 60010 T00390017 56053

More Conditions Fewer Conditions

10-Day Weather Forecast

Almanac

Astronomy

Feb. 01, 2015 Rise Set
Actual Time
Civil Twilight
Nautical Twilight
Astronomical Twilight
Moon
Length of Visible Light
Length of Day
Tomorrow will be .
, % of the Moon is Illuminated

Today's Extremes

State Highs State Lows

Community

WunderPhotos

Upload Photos

1,792,553 photos uploaded!

WunderBlogs® & News

Nearby

Air Quality

  Air Quality AQ Index Pollutant
Not available.

Snow Depth

Station Depth Elevation

Earthquake Activity

City Distance Mag. Time & Date
Minimum magnitude displayed is 2.5.

Coastal Water Temperatures

Place Temperature

Nearby Weather Stations